createdAt,value
2023-03-15T00:02:24.498Z,0.57
2023-03-15T00:04:54.833Z,0.40
2023-03-15T00:07:25.820Z,0.30
2023-03-15T00:09:54.266Z,0.28
2023-03-15T00:12:23.965Z,0.60
2023-03-15T00:14:52.570Z,0.20
2023-03-15T00:17:22.730Z,0.10
2023-03-15T00:19:50.777Z,0.40
2023-03-15T00:22:18.788Z,0.25
2023-03-15T00:24:46.912Z,0.40
2023-03-15T00:27:14.864Z,0.25
2023-03-15T00:29:44.743Z,0.43
2023-03-15T00:32:12.796Z,0.35
2023-03-15T00:34:40.896Z,0.40
2023-03-15T00:37:09.238Z,0.35
2023-03-15T00:39:39.660Z,0.30
2023-03-15T00:42:09.566Z,0.17
2023-03-15T00:44:37.566Z,0.25
2023-03-15T00:47:07.183Z,0.20
2023-03-15T00:49:35.071Z,0.20
2023-03-15T00:52:03.205Z,0.32
2023-03-15T00:54:33.454Z,0.35
2023-03-15T00:57:02.216Z,0.30
2023-03-15T00:59:34.760Z,0.50
2023-03-15T01:02:02.849Z,0.47
2023-03-15T01:04:32.800Z,0.30
2023-03-15T01:07:00.987Z,0.50
2023-03-15T01:09:30.536Z,0.20
2023-03-15T01:11:58.672Z,0.30
2023-03-15T01:14:26.646Z,0.20
2023-03-15T01:16:54.575Z,0.40
2023-03-15T01:19:22.740Z,0.30
2023-03-15T01:21:52.064Z,0.10
2023-03-15T01:24:20.048Z,0.25
2023-03-15T01:26:49.982Z,0.38
2023-03-15T01:29:17.976Z,0.22
2023-03-15T01:31:46.007Z,0.32
2023-03-15T01:34:14.025Z,0.20
2023-03-15T01:36:42.145Z,0.30
2023-03-15T01:39:11.623Z,0.32
2023-03-15T01:41:44.921Z,0.22
2023-03-15T01:44:15.745Z,0.30
2023-03-15T01:46:45.033Z,0.20
2023-03-15T01:49:25.057Z,0.20
2023-03-15T01:51:57.113Z,0.30
2023-03-15T01:54:30.517Z,0.28
2023-03-15T01:57:02.111Z,0.17
2023-03-15T01:59:33.110Z,0.25
2023-03-15T02:02:01.969Z,0.40
2023-03-15T02:04:35.026Z,0.20
2023-03-15T02:07:04.633Z,0.20
2023-03-15T02:09:45.331Z,0.20
2023-03-15T02:12:13.451Z,0.20
2023-03-15T02:14:44.056Z,0.20
2023-03-15T02:17:15.689Z,0.30
2023-03-15T02:19:56.507Z,0.30
2023-03-15T02:22:33.337Z,0.40
2023-03-15T02:25:10.785Z,0.20
2023-03-15T02:27:41.873Z,0.20
2023-03-15T02:30:12.811Z,0.20
2023-03-15T02:32:43.406Z,0.40
2023-03-15T02:35:11.608Z,0.20
2023-03-15T02:37:39.718Z,0.13
2023-03-15T02:40:18.919Z,0.20
2023-03-15T02:42:51.945Z,0.28
2023-03-15T02:45:20.747Z,0.30
2023-03-15T02:47:50.132Z,0.20
2023-03-15T02:50:18.612Z,0.20
2023-03-15T02:52:46.560Z,0.30
2023-03-15T02:55:14.564Z,0.20
2023-03-15T02:57:42.528Z,0.20
2023-03-15T03:00:14.736Z,0.20
2023-03-15T03:02:46.144Z,0.10
2023-03-15T03:05:15.964Z,0.20
2023-03-15T03:07:44.641Z,0.30
2023-03-15T03:10:17.059Z,0.17
2023-03-15T03:12:57.054Z,0.20
2023-03-15T03:15:38.220Z,0.28
2023-03-15T03:18:06.425Z,0.30
2023-03-15T03:20:34.529Z,0.32
2023-03-15T03:23:06.640Z,0.20
2023-03-15T03:25:36.850Z,0.22
2023-03-15T03:28:05.030Z,0.30
2023-03-15T03:30:36.037Z,0.20
2023-03-15T03:33:05.879Z,0.30
2023-03-15T03:35:33.860Z,0.10
2023-03-15T03:38:01.825Z,0.13
2023-03-15T03:40:35.213Z,0.30
2023-03-15T03:43:04.260Z,0.20
2023-03-15T03:45:32.425Z,0.40
2023-03-15T03:48:01.422Z,0.30
2023-03-15T03:50:31.841Z,0.30
2023-03-15T03:52:59.986Z,0.30
2023-03-15T03:55:33.995Z,0.20
2023-03-15T03:58:02.061Z,0.20
2023-03-15T04:00:41.740Z,0.20
2023-03-15T04:03:10.916Z,0.30
2023-03-15T04:05:43.755Z,0.10
2023-03-15T04:08:16.225Z,0.30
2023-03-15T04:10:44.520Z,0.13
2023-03-15T04:13:12.745Z,0.30
2023-03-15T04:15:41.262Z,0.20
2023-03-15T04:18:10.713Z,0.30
2023-03-15T04:20:46.678Z,0.20
2023-03-15T04:23:15.272Z,0.10
2023-03-15T04:26:01.834Z,0.30
2023-03-15T04:28:48.840Z,0.30
2023-03-15T04:31:37.760Z,0.40
2023-03-15T04:34:20.982Z,0.35
2023-03-15T04:37:03.684Z,0.28
2023-03-15T04:39:42.785Z,0.22
2023-03-15T04:42:29.543Z,0.20
2023-03-15T04:45:28.401Z,0.20
2023-03-15T04:48:22.106Z,0.35
2023-03-15T04:51:09.925Z,0.28
2023-03-15T04:53:51.910Z,0.30
2023-03-15T04:56:36.651Z,0.30
2023-03-15T04:59:11.164Z,0.45
2023-03-15T05:02:17.282Z,0.20
2023-03-15T05:05:04.153Z,0.40
2023-03-15T05:07:46.535Z,0.32
2023-03-15T05:10:38.709Z,0.30
2023-03-15T05:13:24.034Z,0.38
2023-03-15T05:16:12.775Z,0.30
2023-03-15T05:18:51.833Z,0.38
2023-03-15T05:21:40.221Z,0.30
2023-03-15T05:24:27.050Z,0.40
2023-03-15T05:27:16.620Z,0.30
2023-03-15T05:30:12.166Z,0.40
2023-03-15T05:32:58.528Z,0.45
2023-03-15T05:35:41.519Z,0.50
2023-03-15T05:38:32.789Z,0.30
2023-03-15T05:41:09.714Z,0.50
2023-03-15T05:44:05.138Z,0.30
2023-03-15T05:47:02.353Z,0.35
2023-03-15T05:49:46.443Z,0.20
2023-03-15T05:52:40.627Z,0.30
2023-03-15T05:55:19.684Z,0.30
2023-03-15T05:58:07.231Z,0.38
2023-03-15T06:00:55.174Z,0.20
2023-03-15T06:03:42.152Z,0.40
2023-03-15T06:06:18.110Z,0.30
2023-03-15T06:08:46.094Z,0.35
2023-03-15T06:11:14.128Z,0.38
2023-03-15T06:13:42.074Z,0.40
2023-03-15T06:16:18.988Z,0.40
2023-03-15T06:18:49.762Z,0.47
2023-03-15T06:21:17.766Z,0.30
2023-03-15T06:23:45.806Z,0.30
2023-03-15T06:26:15.027Z,0.30
2023-03-15T06:28:43.154Z,0.30
2023-03-15T06:31:12.394Z,0.30
2023-03-15T06:33:51.016Z,0.40
2023-03-15T06:36:18.962Z,0.45
2023-03-15T06:38:46.885Z,0.30
2023-03-15T06:41:15.571Z,0.30
2023-03-15T06:43:43.876Z,0.40
2023-03-15T06:46:12.988Z,0.40
2023-03-15T06:48:41.785Z,0.30
2023-03-15T06:51:12.997Z,0.40
2023-03-15T06:53:41.011Z,0.60
2023-03-15T06:56:09.057Z,0.30
2023-03-15T06:58:36.983Z,0.35
2023-03-15T07:01:05.308Z,0.32
2023-03-15T07:03:33.262Z,0.40
2023-03-15T07:06:01.203Z,0.40
2023-03-15T07:08:30.778Z,0.50
2023-03-15T07:10:58.776Z,0.30
2023-03-15T07:13:27.053Z,0.50
2023-03-15T07:15:55.264Z,0.40
2023-03-15T07:18:23.992Z,0.40
2023-03-15T07:20:57.430Z,0.52
2023-03-15T07:23:25.575Z,0.43
2023-03-15T07:25:55.861Z,0.38
2023-03-15T07:28:25.880Z,0.45
2023-03-15T08:04:53.243Z,0.40
2023-03-15T08:07:21.228Z,0.40
2023-03-15T08:09:49.134Z,0.50
2023-03-15T08:12:17.134Z,0.60
2023-03-15T08:14:45.061Z,0.52
2023-03-15T08:17:13.205Z,0.63
2023-03-15T08:19:41.202Z,0.75
2023-03-15T08:22:11.236Z,0.63
2023-03-15T08:24:39.368Z,0.40
2023-03-15T08:27:07.558Z,0.75
2023-03-15T08:29:35.505Z,0.55
2023-03-15T08:32:03.536Z,0.50
2023-03-15T08:34:32.721Z,0.60
2023-03-15T08:37:01.197Z,0.60
2023-03-15T08:39:30.585Z,0.73
2023-03-15T08:41:58.486Z,1.00
2023-03-15T08:44:26.448Z,0.45
2023-03-15T08:46:54.497Z,1.10
2023-03-15T08:49:22.688Z,0.90
2023-03-15T08:51:51.067Z,0.90
2023-03-15T08:54:19.088Z,0.75
2023-03-15T08:56:48.378Z,0.47
2023-03-15T08:59:25.553Z,0.73
2023-03-15T09:01:58.927Z,0.50
2023-03-15T09:04:27.103Z,0.35
2023-03-15T09:06:55.061Z,0.60
2023-03-15T09:09:23.526Z,0.50
2023-03-15T09:11:52.773Z,0.50
2023-03-15T09:14:20.756Z,0.20
2023-03-15T09:16:48.695Z,0.40
2023-03-15T09:19:16.710Z,0.25
2023-03-15T09:21:47.178Z,0.25
2023-03-15T09:24:15.412Z,0.82
2023-03-15T09:26:43.426Z,1.10
2023-03-15T09:29:12.755Z,0.55
2023-03-15T09:31:40.629Z,0.90
2023-03-15T09:34:08.623Z,0.80
2023-03-15T09:36:36.527Z,0.43
2023-03-15T09:39:04.693Z,0.40
2023-03-15T09:41:44.589Z,0.63
2023-03-15T09:44:29.036Z,0.47
2023-03-15T09:47:08.934Z,0.68
2023-03-15T09:49:46.926Z,0.73
2023-03-15T09:52:28.609Z,0.70
2023-03-15T09:55:01.169Z,0.57
2023-03-15T09:57:40.039Z,0.63
2023-03-15T10:00:14.574Z,0.77
2023-03-15T10:02:48.823Z,0.50
2023-03-15T10:05:22.066Z,0.50
2023-03-15T10:07:50.083Z,0.60
2023-03-15T10:10:20.214Z,0.50
2023-03-15T10:12:53.896Z,0.80
2023-03-15T10:15:32.820Z,0.75
2023-03-15T10:18:28.712Z,0.73
2023-03-15T10:21:04.780Z,0.60
2023-03-15T10:23:41.334Z,0.50
2023-03-15T10:26:15.556Z,0.40
2023-03-15T10:28:44.918Z,1.00
2023-03-15T10:31:22.389Z,0.70
2023-03-15T10:33:58.516Z,0.45
2023-03-15T10:36:27.206Z,0.80
2023-03-15T10:38:55.219Z,0.40
2023-03-15T10:41:31.378Z,0.50
2023-03-15T10:44:03.155Z,0.50
2023-03-15T10:46:32.842Z,0.75
2023-03-15T10:49:09.161Z,3.40
2023-03-15T10:51:41.634Z,12.48
2023-03-15T10:54:14.404Z,28.30
2023-03-15T10:56:47.938Z,45.90
2023-03-15T10:59:18.316Z,56.97
2023-03-15T11:01:50.267Z,71.22
2023-03-15T11:04:21.464Z,91.85
2023-03-15T11:06:51.776Z,112.57
2023-03-15T11:09:23.342Z,146.80
2023-03-15T11:11:58.452Z,173.82
2023-03-15T11:14:27.198Z,275.98
2023-03-15T11:17:00.030Z,312.02
2023-03-15T11:19:29.976Z,241.68
2023-03-15T11:22:00.989Z,172.82
2023-03-15T11:24:30.825Z,123.50
2023-03-15T11:27:01.663Z,93.53
2023-03-15T11:29:32.770Z,69.13
2023-03-15T11:32:06.536Z,58.47
2023-03-15T11:34:41.531Z,48.13
2023-03-15T11:37:17.600Z,40.08
2023-03-15T11:39:58.799Z,32.20
2023-03-15T11:42:34.907Z,27.50
2023-03-15T11:45:07.320Z,24.45
2023-03-15T11:47:44.017Z,20.88
2023-03-15T11:50:15.289Z,18.13
2023-03-15T11:52:44.468Z,16.27
2023-03-15T11:55:19.452Z,14.80
2023-03-15T11:57:49.327Z,13.45
2023-03-15T12:00:52.829Z,13.18
2023-03-15T12:03:35.435Z,11.43
2023-03-15T12:06:26.977Z,10.02
2023-03-15T12:08:56.491Z,9.48
2023-03-15T12:11:41.790Z,8.80
2023-03-15T12:14:29.098Z,9.70
2023-03-15T12:17:38.573Z,6.82
2023-03-15T12:20:19.707Z,8.07
2023-03-15T12:22:52.095Z,8.00
2023-03-15T12:25:24.436Z,6.32
2023-03-15T12:27:55.134Z,6.05
2023-03-15T12:30:26.735Z,5.70
2023-03-15T12:32:57.155Z,5.35
2023-03-15T12:35:32.210Z,5.38
2023-03-15T12:38:03.088Z,4.90
2023-03-15T12:40:41.963Z,4.65
2023-03-15T12:43:13.491Z,4.45
2023-03-15T12:45:46.541Z,3.90
2023-03-15T12:48:22.592Z,3.78
2023-03-15T12:50:56.064Z,3.75
2023-03-15T12:53:36.983Z,3.00
2023-03-15T12:56:32.636Z,3.17
2023-03-15T12:59:11.350Z,2.65
2023-03-15T13:01:39.403Z,2.90
2023-03-15T13:04:07.544Z,2.20
2023-03-15T13:06:46.919Z,2.33
2023-03-15T13:09:27.005Z,2.10
2023-03-15T13:12:00.770Z,1.98
2023-03-15T13:14:39.214Z,1.95
2023-03-15T13:17:19.606Z,1.83
2023-03-15T13:19:52.886Z,1.60
2023-03-15T13:22:31.867Z,2.05
2023-03-15T13:25:09.860Z,1.63
2023-03-15T13:27:47.917Z,1.40
2023-03-15T13:30:34.831Z,1.65
2023-03-15T13:33:06.221Z,1.50
2023-03-15T13:35:34.943Z,1.40
2023-03-15T13:38:23.077Z,1.30
2023-03-15T13:40:51.395Z,1.15
2023-03-15T13:43:19.713Z,1.52
2023-03-15T13:45:47.830Z,1.30
2023-03-15T13:48:15.778Z,1.30
2023-03-15T13:50:49.268Z,1.10
2023-03-15T13:53:35.647Z,1.13
2023-03-15T13:56:16.592Z,0.90
2023-03-15T13:58:44.788Z,1.13
2023-03-15T14:01:15.584Z,1.00
2023-03-15T14:03:44.388Z,1.23
2023-03-15T14:06:22.158Z,1.00
2023-03-15T14:08:55.697Z,0.70
2023-03-15T14:11:37.185Z,0.80
2023-03-15T14:14:21.858Z,0.70
2023-03-15T14:17:04.225Z,0.77
2023-03-15T14:19:35.182Z,0.68
2023-03-15T14:22:05.056Z,0.90
2023-03-15T14:24:37.612Z,0.82
2023-03-15T14:27:09.206Z,0.80
2023-03-15T14:29:38.596Z,1.15
2023-03-15T14:32:08.722Z,0.77
2023-03-15T14:34:38.578Z,0.63
2023-03-15T14:37:27.589Z,0.90
2023-03-15T14:40:07.786Z,0.90
2023-03-15T14:42:35.837Z,0.85
2023-03-15T14:45:03.765Z,0.70
2023-03-15T14:47:32.631Z,0.70
2023-03-15T14:50:01.591Z,0.70
2023-03-15T14:52:29.693Z,0.52
2023-03-15T14:54:59.019Z,0.68
2023-03-15T14:57:26.870Z,0.52
2023-03-15T14:59:54.998Z,0.70
2023-03-15T15:02:23.101Z,0.65
2023-03-15T15:04:51.284Z,0.88
2023-03-15T15:07:20.594Z,0.50
2023-03-15T15:09:51.721Z,0.55
2023-03-15T15:12:21.143Z,0.50
2023-03-15T15:14:49.079Z,0.55
2023-03-15T15:17:17.080Z,0.60
2023-03-15T15:19:46.961Z,0.63
2023-03-15T15:22:15.543Z,0.63
2023-03-15T15:24:44.679Z,0.40
2023-03-15T15:27:13.323Z,0.40
2023-03-15T15:29:42.640Z,0.60
2023-03-15T15:32:10.618Z,0.50
2023-03-15T15:34:40.803Z,0.70
2023-03-15T15:37:11.282Z,1.05
2023-03-15T15:39:39.269Z,0.63
2023-03-15T15:42:07.479Z,0.70
2023-03-15T15:44:35.590Z,0.50
2023-03-15T15:47:05.087Z,0.32
2023-03-15T15:49:32.986Z,0.50
2023-03-15T15:52:01.043Z,0.38
2023-03-15T15:54:30.633Z,0.50
2023-03-15T15:57:00.509Z,0.60
2023-03-15T15:59:28.548Z,0.50
2023-03-15T16:02:01.063Z,0.40
2023-03-15T16:04:32.924Z,0.70
2023-03-15T16:07:03.582Z,0.50
2023-03-15T16:09:35.740Z,0.55
2023-03-15T16:12:04.238Z,0.70
2023-03-15T16:14:32.285Z,0.68
2023-03-15T16:17:00.241Z,0.30
2023-03-15T16:19:28.297Z,0.50
2023-03-15T16:21:57.600Z,0.40
2023-03-15T16:24:30.141Z,0.35
2023-03-15T16:27:03.211Z,0.38
2023-03-15T16:29:36.576Z,0.45
2023-03-15T16:32:16.549Z,0.60
2023-03-15T16:34:47.945Z,0.40
2023-03-15T16:37:19.244Z,0.40
2023-03-15T16:39:50.318Z,0.38
2023-03-15T16:42:19.600Z,0.40
2023-03-15T16:44:48.634Z,0.73
2023-03-15T16:47:16.593Z,0.50
2023-03-15T16:49:44.719Z,0.52
2023-03-15T16:52:16.081Z,0.30
2023-03-15T16:54:48.451Z,0.50
2023-03-15T16:57:21.796Z,0.40
2023-03-15T16:59:50.215Z,0.60
2023-03-15T17:02:20.022Z,0.50
2023-03-15T17:04:48.217Z,0.60
2023-03-15T17:07:17.505Z,0.40
2023-03-15T17:09:48.705Z,0.50
2023-03-15T17:12:23.428Z,0.30
2023-03-15T17:14:52.665Z,0.47
2023-03-15T17:17:20.864Z,0.70
2023-03-15T17:19:49.196Z,0.30
2023-03-15T17:22:18.400Z,0.35
2023-03-15T17:24:49.780Z,0.38
2023-03-15T17:27:27.338Z,0.45
2023-03-15T17:29:55.341Z,0.32
2023-03-15T17:32:23.383Z,0.50
2023-03-15T17:34:51.435Z,0.47
2023-03-15T17:37:20.314Z,0.60
2023-03-15T17:39:49.797Z,0.60
2023-03-15T17:42:19.011Z,0.57
2023-03-15T17:44:46.963Z,0.38
2023-03-15T17:47:15.108Z,0.38
2023-03-15T17:49:43.068Z,0.50
2023-03-15T17:52:15.290Z,0.40
2023-03-15T17:54:43.153Z,0.60
2023-03-15T17:57:14.043Z,0.38
2023-03-15T17:59:42.114Z,0.52
2023-03-15T18:02:15.681Z,0.50
2023-03-15T18:04:43.708Z,0.60
2023-03-15T18:07:11.740Z,0.63
2023-03-15T18:09:39.787Z,0.65
2023-03-15T18:12:10.630Z,0.60
2023-03-15T18:14:39.981Z,0.55
2023-03-15T18:17:07.890Z,0.70
2023-03-15T18:19:35.869Z,0.55
2023-03-15T18:22:03.972Z,0.60
2023-03-15T18:24:34.298Z,0.70
2023-03-15T18:27:02.692Z,0.55
2023-03-15T18:29:31.758Z,0.77
2023-03-15T18:32:01.202Z,0.70
2023-03-15T18:34:29.244Z,0.60
2023-03-15T18:36:57.179Z,0.60
2023-03-15T18:39:25.335Z,0.60
2023-03-15T18:41:53.304Z,0.40
2023-03-15T18:44:21.275Z,0.73
2023-03-15T18:46:49.446Z,0.93
2023-03-15T18:49:18.809Z,1.10
2023-03-15T18:51:46.794Z,1.17
2023-03-15T18:54:14.888Z,0.70
2023-03-15T18:56:43.190Z,0.45
2023-03-15T18:59:12.127Z,0.68
2023-03-15T19:01:40.227Z,0.40
2023-03-15T19:04:08.256Z,0.35
2023-03-15T19:06:37.817Z,0.57
2023-03-15T19:09:05.897Z,0.70
2023-03-15T19:11:38.121Z,0.70
2023-03-15T19:14:06.071Z,0.70
2023-03-15T19:16:34.064Z,1.13
2023-03-15T19:19:02.386Z,0.80
2023-03-15T19:21:30.298Z,0.50
2023-03-15T19:23:59.679Z,0.75
2023-03-15T19:26:27.692Z,0.55
2023-03-15T19:28:56.271Z,0.70
2023-03-15T19:31:24.480Z,0.35
2023-03-15T19:33:52.541Z,0.57
2023-03-15T19:36:22.105Z,0.52
2023-03-15T19:38:50.006Z,0.20
2023-03-15T19:41:19.403Z,0.50
2023-03-15T19:43:47.343Z,0.50
2023-03-15T19:46:17.236Z,0.60
2023-03-15T19:48:45.191Z,1.00
2023-03-15T19:51:13.296Z,0.70
2023-03-15T19:53:41.221Z,0.35
2023-03-15T19:56:10.613Z,0.60
2023-03-15T19:58:39.879Z,0.60
2023-03-15T20:01:07.928Z,0.90
2023-03-15T20:03:36.024Z,0.60
2023-03-15T20:06:08.720Z,0.63
2023-03-15T20:08:36.878Z,0.50
2023-03-15T20:11:05.289Z,0.30
2023-03-15T20:13:33.619Z,0.70
2023-03-15T20:16:03.163Z,0.40
2023-03-15T20:18:31.476Z,0.50
2023-03-15T20:20:59.461Z,0.50
2023-03-15T20:23:28.228Z,0.50
2023-03-15T20:26:05.391Z,0.40
2023-03-15T20:28:33.556Z,0.55
2023-03-15T20:31:07.406Z,0.68
2023-03-15T20:33:35.590Z,0.70
2023-03-15T20:36:03.766Z,0.70
2023-03-15T20:38:34.264Z,0.75
2023-03-15T20:41:02.325Z,0.55
2023-03-15T20:43:30.283Z,0.40
2023-03-15T20:46:00.234Z,0.95
2023-03-15T20:48:30.266Z,0.60
2023-03-15T20:50:58.741Z,0.30
2023-03-15T20:53:26.970Z,0.63
2023-03-15T20:55:54.929Z,0.52
2023-03-15T20:58:22.973Z,0.50
2023-03-15T21:00:51.163Z,0.35
2023-03-15T21:03:19.448Z,0.40
2023-03-15T21:05:48.747Z,0.25
2023-03-15T21:08:17.408Z,0.60
2023-03-15T21:10:45.480Z,0.50
2023-03-15T21:13:13.412Z,0.40
2023-03-15T21:15:45.735Z,0.55
2023-03-15T21:18:15.561Z,0.30
2023-03-15T21:20:43.606Z,0.60
2023-03-15T21:23:13.022Z,0.40
2023-03-15T21:25:41.215Z,0.60
2023-03-15T21:28:09.281Z,0.50
2023-03-15T21:30:39.869Z,0.50
2023-03-15T21:33:08.096Z,0.60
2023-03-15T21:35:36.160Z,0.43
2023-03-15T21:38:04.410Z,0.40
2023-03-15T21:40:33.777Z,0.50
2023-03-15T21:43:01.910Z,0.30
2023-03-15T21:45:29.802Z,0.40
2023-03-15T21:47:57.961Z,0.40
2023-03-15T21:50:26.627Z,0.35
2023-03-15T21:52:54.927Z,0.55
2023-03-15T21:55:22.996Z,0.50
2023-03-15T21:57:52.767Z,0.30
2023-03-15T22:00:23.788Z,0.20
2023-03-15T22:02:55.608Z,0.75
2023-03-15T22:05:24.500Z,1.00
2023-03-15T22:07:52.411Z,0.80
2023-03-15T22:10:22.106Z,0.70
2023-03-15T22:12:50.118Z,0.57
2023-03-15T22:15:19.679Z,0.50
2023-03-15T22:17:47.689Z,0.50
2023-03-15T22:20:16.917Z,0.28
2023-03-15T22:22:45.358Z,0.40
2023-03-15T22:25:13.431Z,0.40
2023-03-15T22:27:42.187Z,0.50
2023-03-15T22:30:13.559Z,0.52
2023-03-15T22:32:44.318Z,0.52
2023-03-15T22:35:12.777Z,0.40
2023-03-15T22:37:40.997Z,0.20
2023-03-15T22:40:11.037Z,0.47
2023-03-15T22:42:39.016Z,0.50
2023-03-15T22:45:08.058Z,0.50
2023-03-15T22:47:36.143Z,0.40
2023-03-15T22:50:05.981Z,0.30
2023-03-15T22:52:33.923Z,0.50
2023-03-15T22:55:01.825Z,0.40
2023-03-15T22:57:29.789Z,0.35
2023-03-15T22:59:58.645Z,0.55
2023-03-15T23:02:26.802Z,0.60
2023-03-15T23:04:54.966Z,0.70
2023-03-15T23:07:24.301Z,0.82
2023-03-15T23:09:52.280Z,0.52
2023-03-15T23:12:27.139Z,0.57
2023-03-15T23:15:04.013Z,0.60
2023-03-15T23:17:32.331Z,0.70
2023-03-15T23:20:00.336Z,0.70
2023-03-15T23:22:30.787Z,0.40
2023-03-15T23:24:58.795Z,0.75
2023-03-15T23:27:26.958Z,0.40
2023-03-15T23:29:55.441Z,0.65
2023-03-15T23:32:24.937Z,0.50
2023-03-15T23:34:53.537Z,0.40
2023-03-15T23:37:22.342Z,0.57
2023-03-15T23:39:53.352Z,0.70
2023-03-15T23:42:25.672Z,0.45
2023-03-15T23:44:54.604Z,0.65
2023-03-15T23:47:23.404Z,0.40
2023-03-15T23:49:51.838Z,0.50
2023-03-15T23:52:20.230Z,0.50
2023-03-15T23:54:48.364Z,0.40
2023-03-15T23:57:18.200Z,0.40
2023-03-15T23:59:46.207Z,0.50
